Terminal Aerodrome Forecast
Issued by NWS Upton, NY

Home | Current Version | Previous Version | Text Only | Print | Product List | Glossary On
Versions: 1 2 3 4 5 6 7 8 9 10 11 12 13 14 15 16 17 18 19 20 21
000
FTUS41 KOKX 262300
TAFEWR
TAF
KEWR 262325Z 2700/2806 25007KT P6SM FEW250
     FM270600 26004KT P6SM FEW250
     FM271800 22006KT P6SM SCT250
     FM280200 23007KT P6SM FEW100 BKN250=

USA.gov is the U.S. government's official web portal to all federal, state and local government web resources and services.